sensor_id;sensor_type;location;lat;lon;timestamp;P1;durP1;ratioP1;P2;durP2;ratioP2
27209;SDS011;14721;42.668;23.386;2022-10-17T00:01:08;8.47;;;5.13;;
27209;SDS011;14721;42.668;23.386;2022-10-17T00:03:34;11.90;;;5.53;;
27209;SDS011;14721;42.668;23.386;2022-10-17T00:06:08;9.17;;;4.93;;
27209;SDS011;14721;42.668;23.386;2022-10-17T00:08:36;9.80;;;5.10;;
27209;SDS011;14721;42.668;23.386;2022-10-17T00:11:04;14.10;;;6.07;;
27209;SDS011;14721;42.668;23.386;2022-10-17T00:13:40;10.53;;;5.87;;
27209;SDS011;14721;42.668;23.386;2022-10-17T00:16:06;11.23;;;6.27;;
27209;SDS011;14721;42.668;23.386;2022-10-17T00:18:32;12.13;;;5.50;;
27209;SDS011;14721;42.668;23.386;2022-10-17T00:20:58;14.87;;;6.20;;
27209;SDS011;14721;42.668;23.386;2022-10-17T00:23:23;14.03;;;6.07;;
27209;SDS011;14721;42.668;23.386;2022-10-17T00:26:01;9.87;;;6.10;;
27209;SDS011;14721;42.668;23.386;2022-10-17T00:28:29;7.20;;;5.43;;
27209;SDS011;14721;42.668;23.386;2022-10-17T00:30:59;8.07;;;4.27;;
27209;SDS011;14721;42.668;23.386;2022-10-17T00:33:27;11.33;;;5.73;;
27209;SDS011;14721;42.668;23.386;2022-10-17T00:36:05;12.00;;;6.07;;
27209;SDS011;14721;42.668;23.386;2022-10-17T00:38:32;10.77;;;4.87;;
27209;SDS011;14721;42.668;23.386;2022-10-17T00:40:59;7.90;;;4.33;;
27209;SDS011;14721;42.668;23.386;2022-10-17T00:43:25;9.50;;;5.63;;
27209;SDS011;14721;42.668;23.386;2022-10-17T00:45:50;10.63;;;5.37;;
27209;SDS011;14721;42.668;23.386;2022-10-17T00:48:17;9.10;;;5.23;;
27209;SDS011;14721;42.668;23.386;2022-10-17T00:50:44;8.63;;;5.00;;
27209;SDS011;14721;42.668;23.386;2022-10-17T00:53:13;7.23;;;3.90;;
27209;SDS011;14721;42.668;23.386;2022-10-17T00:55:47;7.30;;;3.17;;
27209;SDS011;14721;42.668;23.386;2022-10-17T00:58:15;7.10;;;4.20;;
27209;SDS011;14721;42.668;23.386;2022-10-17T01:00:42;12.30;;;4.60;;
27209;SDS011;14721;42.668;23.386;2022-10-17T01:03:08;7.87;;;4.30;;
27209;SDS011;14721;42.668;23.386;2022-10-17T01:05:34;7.73;;;3.87;;
27209;SDS011;14721;42.668;23.386;2022-10-17T01:08:01;7.33;;;3.90;;
27209;SDS011;14721;42.668;23.386;2022-10-17T01:10:29;8.07;;;4.30;;
27209;SDS011;14721;42.668;23.386;2022-10-17T01:13:19;10.53;;;4.03;;
27209;SDS011;14721;42.668;23.386;2022-10-17T01:15:49;9.33;;;4.53;;
27209;SDS011;14721;42.668;23.386;2022-10-17T01:18:31;10.63;;;4.63;;
27209;SDS011;14721;42.668;23.386;2022-10-17T01:24:08;11.07;;;5.60;;
27209;SDS011;14721;42.668;23.386;2022-10-17T01:27:04;7.07;;;4.10;;
27209;SDS011;14721;42.668;23.386;2022-10-17T01:29:56;9.47;;;3.77;;
27209;SDS011;14721;42.668;23.386;2022-10-17T01:32:48;9.13;;;4.67;;
27209;SDS011;14721;42.668;23.386;2022-10-17T01:35:40;8.37;;;4.00;;
27209;SDS011;14721;42.668;23.386;2022-10-17T01:38:21;8.97;;;5.07;;
27209;SDS011;14721;42.668;23.386;2022-10-17T01:40:52;8.83;;;3.80;;
27209;SDS011;14721;42.668;23.386;2022-10-17T01:43:38;9.00;;;4.23;;
27209;SDS011;14721;42.668;23.386;2022-10-17T01:46:15;7.57;;;4.47;;
27209;SDS011;14721;42.668;23.386;2022-10-17T01:48:46;8.30;;;4.30;;
27209;SDS011;14721;42.668;23.386;2022-10-17T01:51:20;9.50;;;4.03;;
27209;SDS011;14721;42.668;23.386;2022-10-17T01:54:01;7.90;;;4.60;;
27209;SDS011;14721;42.668;23.386;2022-10-17T01:56:33;11.07;;;4.80;;
27209;SDS011;14721;42.668;23.386;2022-10-17T01:59:12;7.87;;;4.47;;
27209;SDS011;14721;42.668;23.386;2022-10-17T02:01:42;6.33;;;3.97;;
27209;SDS011;14721;42.668;23.386;2022-10-17T02:04:09;9.20;;;4.90;;
27209;SDS011;14721;42.668;23.386;2022-10-17T02:06:36;6.10;;;4.17;;
27209;SDS011;14721;42.668;23.386;2022-10-17T02:09:14;9.23;;;4.13;;
27209;SDS011;14721;42.668;23.386;2022-10-17T02:14:45;10.17;;;4.27;;
27209;SDS011;14721;42.668;23.386;2022-10-17T02:17:26;8.80;;;4.60;;
27209;SDS011;14721;42.668;23.386;2022-10-17T02:19:58;6.73;;;3.53;;
27209;SDS011;14721;42.668;23.386;2022-10-17T02:27:46;8.03;;;4.20;;
27209;SDS011;14721;42.668;23.386;2022-10-17T02:30:22;8.63;;;4.50;;
27209;SDS011;14721;42.668;23.386;2022-10-17T02:36:21;7.73;;;3.50;;
27209;SDS011;14721;42.668;23.386;2022-10-17T02:38:54;9.40;;;4.63;;
27209;SDS011;14721;42.668;23.386;2022-10-17T02:41:22;6.20;;;4.17;;
27209;SDS011;14721;42.668;23.386;2022-10-17T02:43:49;7.57;;;4.43;;
27209;SDS011;14721;42.668;23.386;2022-10-17T02:46:17;9.00;;;4.60;;
27209;SDS011;14721;42.668;23.386;2022-10-17T02:48:47;8.90;;;4.93;;
27209;SDS011;14721;42.668;23.386;2022-10-17T02:53:51;13.13;;;5.70;;
27209;SDS011;14721;42.668;23.386;2022-10-17T02:56:22;8.83;;;5.47;;
27209;SDS011;14721;42.668;23.386;2022-10-17T02:58:53;11.97;;;6.13;;
27209;SDS011;14721;42.668;23.386;2022-10-17T03:01:23;8.30;;;5.77;;
27209;SDS011;14721;42.668;23.386;2022-10-17T03:03:49;18.40;;;8.07;;
27209;SDS011;14721;42.668;23.386;2022-10-17T03:06:15;15.07;;;7.80;;
27209;SDS011;14721;42.668;23.386;2022-10-17T03:08:41;16.10;;;6.80;;
27209;SDS011;14721;42.668;23.386;2022-10-17T03:11:06;15.83;;;7.80;;
27209;SDS011;14721;42.668;23.386;2022-10-17T03:13:32;20.90;;;8.97;;
27209;SDS011;14721;42.668;23.386;2022-10-17T03:15:58;15.40;;;7.37;;
27209;SDS011;14721;42.668;23.386;2022-10-17T03:18:24;18.80;;;9.17;;
27209;SDS011;14721;42.668;23.386;2022-10-17T03:20:49;23.13;;;8.90;;
27209;SDS011;14721;42.668;23.386;2022-10-17T03:23:15;18.03;;;8.37;;
27209;SDS011;14721;42.668;23.386;2022-10-17T03:25:41;14.67;;;8.60;;
27209;SDS011;14721;42.668;23.386;2022-10-17T03:28:07;16.07;;;7.70;;
27209;SDS011;14721;42.668;23.386;2022-10-17T03:30:33;14.97;;;8.40;;
27209;SDS011;14721;42.668;23.386;2022-10-17T03:33:02;22.17;;;9.03;;
27209;SDS011;14721;42.668;23.386;2022-10-17T03:35:28;18.87;;;8.90;;
27209;SDS011;14721;42.668;23.386;2022-10-17T03:37:54;15.07;;;8.57;;
27209;SDS011;14721;42.668;23.386;2022-10-17T03:40:20;19.77;;;8.90;;
27209;SDS011;14721;42.668;23.386;2022-10-17T03:42:45;27.73;;;8.77;;
27209;SDS011;14721;42.668;23.386;2022-10-17T03:45:11;18.23;;;8.80;;
27209;SDS011;14721;42.668;23.386;2022-10-17T03:47:36;18.83;;;9.27;;
27209;SDS011;14721;42.668;23.386;2022-10-17T03:50:02;20.03;;;9.33;;
27209;SDS011;14721;42.668;23.386;2022-10-17T03:52:28;17.27;;;9.33;;
27209;SDS011;14721;42.668;23.386;2022-10-17T03:54:55;22.50;;;9.57;;
27209;SDS011;14721;42.668;23.386;2022-10-17T03:57:21;12.73;;;7.77;;
27209;SDS011;14721;42.668;23.386;2022-10-17T03:59:48;17.17;;;7.50;;
27209;SDS011;14721;42.668;23.386;2022-10-17T04:02:16;17.43;;;8.27;;
27209;SDS011;14721;42.668;23.386;2022-10-17T04:04:42;21.33;;;9.43;;
27209;SDS011;14721;42.668;23.386;2022-10-17T04:07:08;20.77;;;8.70;;
27209;SDS011;14721;42.668;23.386;2022-10-17T04:09:34;19.20;;;8.57;;
27209;SDS011;14721;42.668;23.386;2022-10-17T04:12:00;17.00;;;8.63;;
27209;SDS011;14721;42.668;23.386;2022-10-17T04:14:27;15.93;;;7.77;;
27209;SDS011;14721;42.668;23.386;2022-10-17T04:16:55;20.10;;;9.37;;
27209;SDS011;14721;42.668;23.386;2022-10-17T04:19:21;22.60;;;10.17;;
27209;SDS011;14721;42.668;23.386;2022-10-17T04:21:47;19.53;;;10.10;;
27209;SDS011;14721;42.668;23.386;2022-10-17T04:24:12;19.93;;;9.83;;
27209;SDS011;14721;42.668;23.386;2022-10-17T04:26:38;16.40;;;9.13;;
27209;SDS011;14721;42.668;23.386;2022-10-17T04:29:04;18.97;;;8.87;;
27209;SDS011;14721;42.668;23.386;2022-10-17T04:31:29;16.63;;;10.07;;
27209;SDS011;14721;42.668;23.386;2022-10-17T04:33:55;19.83;;;9.20;;
27209;SDS011;14721;42.668;23.386;2022-10-17T04:36:21;22.50;;;9.00;;
27209;SDS011;14721;42.668;23.386;2022-10-17T04:38:47;14.20;;;8.03;;
27209;SDS011;14721;42.668;23.386;2022-10-17T04:41:14;18.30;;;9.13;;
27209;SDS011;14721;42.668;23.386;2022-10-17T04:43:42;21.07;;;9.13;;
27209;SDS011;14721;42.668;23.386;2022-10-17T04:46:11;17.87;;;8.87;;
27209;SDS011;14721;42.668;23.386;2022-10-17T04:48:38;16.63;;;8.20;;
27209;SDS011;14721;42.668;23.386;2022-10-17T04:51:06;13.17;;;7.47;;
27209;SDS011;14721;42.668;23.386;2022-10-17T04:53:35;15.07;;;7.60;;
27209;SDS011;14721;42.668;23.386;2022-10-17T04:56:06;15.70;;;6.43;;
27209;SDS011;14721;42.668;23.386;2022-10-17T04:58:34;10.57;;;5.67;;
27209;SDS011;14721;42.668;23.386;2022-10-17T05:01:03;11.10;;;5.20;;
27209;SDS011;14721;42.668;23.386;2022-10-17T05:03:32;10.67;;;4.93;;
27209;SDS011;14721;42.668;23.386;2022-10-17T05:06:02;11.53;;;6.13;;
27209;SDS011;14721;42.668;23.386;2022-10-17T05:08:30;12.17;;;7.07;;
27209;SDS011;14721;42.668;23.386;2022-10-17T05:10:56;18.77;;;7.60;;
27209;SDS011;14721;42.668;23.386;2022-10-17T05:13:21;16.70;;;8.17;;
27209;SDS011;14721;42.668;23.386;2022-10-17T05:15:47;13.83;;;7.13;;
27209;SDS011;14721;42.668;23.386;2022-10-17T05:18:13;15.60;;;7.87;;
27209;SDS011;14721;42.668;23.386;2022-10-17T05:20:38;17.17;;;6.77;;
27209;SDS011;14721;42.668;23.386;2022-10-17T05:23:04;16.47;;;6.83;;
27209;SDS011;14721;42.668;23.386;2022-10-17T05:25:30;13.90;;;7.17;;
27209;SDS011;14721;42.668;23.386;2022-10-17T05:27:55;13.50;;;6.47;;
27209;SDS011;14721;42.668;23.386;2022-10-17T05:30:20;11.67;;;6.17;;
27209;SDS011;14721;42.668;23.386;2022-10-17T05:32:46;14.60;;;6.57;;
27209;SDS011;14721;42.668;23.386;2022-10-17T05:35:11;15.27;;;6.87;;
27209;SDS011;14721;42.668;23.386;2022-10-17T05:37:37;16.80;;;7.90;;
27209;SDS011;14721;42.668;23.386;2022-10-17T05:40:02;18.10;;;8.00;;
27209;SDS011;14721;42.668;23.386;2022-10-17T05:42:28;20.40;;;8.97;;
27209;SDS011;14721;42.668;23.386;2022-10-17T05:44:54;20.70;;;9.43;;
27209;SDS011;14721;42.668;23.386;2022-10-17T05:47:22;15.30;;;9.40;;
27209;SDS011;14721;42.668;23.386;2022-10-17T05:49:48;19.57;;;9.40;;
27209;SDS011;14721;42.668;23.386;2022-10-17T05:52:13;23.63;;;9.47;;
27209;SDS011;14721;42.668;23.386;2022-10-17T05:54:39;20.40;;;9.17;;
27209;SDS011;14721;42.668;23.386;2022-10-17T05:57:04;17.00;;;9.03;;
27209;SDS011;14721;42.668;23.386;2022-10-17T05:59:30;19.30;;;8.43;;
27209;SDS011;14721;42.668;23.386;2022-10-17T06:01:55;15.00;;;8.57;;
27209;SDS011;14721;42.668;23.386;2022-10-17T06:04:21;22.57;;;8.70;;
27209;SDS011;14721;42.668;23.386;2022-10-17T06:06:46;17.80;;;9.53;;
27209;SDS011;14721;42.668;23.386;2022-10-17T06:09:12;18.83;;;8.23;;
27209;SDS011;14721;42.668;23.386;2022-10-17T06:11:37;16.60;;;8.23;;
27209;SDS011;14721;42.668;23.386;2022-10-17T06:14:03;15.50;;;8.43;;
27209;SDS011;14721;42.668;23.386;2022-10-17T06:16:28;14.00;;;7.37;;
27209;SDS011;14721;42.668;23.386;2022-10-17T06:18:54;16.43;;;8.10;;
27209;SDS011;14721;42.668;23.386;2022-10-17T06:21:22;16.03;;;8.43;;
27209;SDS011;14721;42.668;23.386;2022-10-17T06:23:49;19.60;;;8.00;;
27209;SDS011;14721;42.668;23.386;2022-10-17T06:26:15;15.55;;;7.90;;
27209;SDS011;14721;42.668;23.386;2022-10-17T06:28:41;16.17;;;8.13;;
27209;SDS011;14721;42.668;23.386;2022-10-17T06:31:07;18.27;;;8.13;;
27209;SDS011;14721;42.668;23.386;2022-10-17T06:33:37;17.95;;;7.80;;
27209;SDS011;14721;42.668;23.386;2022-10-17T06:36:03;21.30;;;8.25;;
27209;SDS011;14721;42.668;23.386;2022-10-17T06:38:30;18.70;;;8.02;;
27209;SDS011;14721;42.668;23.386;2022-10-17T06:41:05;13.77;;;7.75;;
27209;SDS011;14721;42.668;23.386;2022-10-17T06:43:36;18.02;;;7.53;;
27209;SDS011;14721;42.668;23.386;2022-10-17T06:46:02;17.17;;;7.97;;
27209;SDS011;14721;42.668;23.386;2022-10-17T06:48:29;17.65;;;8.60;;
27209;SDS011;14721;42.668;23.386;2022-10-17T06:50:58;25.90;;;9.05;;
27209;SDS011;14721;42.668;23.386;2022-10-17T06:53:27;15.07;;;8.68;;
27209;SDS011;14721;42.668;23.386;2022-10-17T06:55:53;11.93;;;7.90;;
27209;SDS011;14721;42.668;23.386;2022-10-17T06:58:22;15.18;;;8.00;;
27209;SDS011;14721;42.668;23.386;2022-10-17T07:00:48;27.25;;;9.65;;
27209;SDS011;14721;42.668;23.386;2022-10-17T07:03:13;18.08;;;8.75;;
27209;SDS011;14721;42.668;23.386;2022-10-17T07:05:38;15.57;;;8.27;;
27209;SDS011;14721;42.668;23.386;2022-10-17T07:08:04;18.73;;;8.85;;
27209;SDS011;14721;42.668;23.386;2022-10-17T07:10:29;15.23;;;8.25;;
27209;SDS011;14721;42.668;23.386;2022-10-17T07:12:55;17.63;;;8.88;;
27209;SDS011;14721;42.668;23.386;2022-10-17T07:15:21;15.57;;;8.77;;
27209;SDS011;14721;42.668;23.386;2022-10-17T07:17:49;14.45;;;8.85;;
27209;SDS011;14721;42.668;23.386;2022-10-17T07:20:15;14.85;;;9.05;;
27209;SDS011;14721;42.668;23.386;2022-10-17T07:22:40;15.40;;;8.15;;
27209;SDS011;14721;42.668;23.386;2022-10-17T07:25:06;15.15;;;9.73;;
27209;SDS011;14721;42.668;23.386;2022-10-17T07:27:32;17.83;;;8.65;;
27209;SDS011;14721;42.668;23.386;2022-10-17T07:29:58;16.40;;;9.55;;
27209;SDS011;14721;42.668;23.386;2022-10-17T07:32:24;15.27;;;9.02;;
27209;SDS011;14721;42.668;23.386;2022-10-17T07:34:49;16.80;;;9.27;;
27209;SDS011;14721;42.668;23.386;2022-10-17T07:37:15;15.43;;;9.05;;
27209;SDS011;14721;42.668;23.386;2022-10-17T07:39:40;17.50;;;9.75;;
27209;SDS011;14721;42.668;23.386;2022-10-17T07:42:06;18.98;;;9.55;;
27209;SDS011;14721;42.668;23.386;2022-10-17T07:44:31;15.35;;;9.02;;
27209;SDS011;14721;42.668;23.386;2022-10-17T07:46:57;23.13;;;10.27;;
27209;SDS011;14721;42.668;23.386;2022-10-17T07:49:23;29.92;;;9.90;;
27209;SDS011;14721;42.668;23.386;2022-10-17T07:51:48;14.70;;;8.20;;
27209;SDS011;14721;42.668;23.386;2022-10-17T07:54:13;18.85;;;9.93;;
27209;SDS011;14721;42.668;23.386;2022-10-17T07:56:39;17.27;;;9.80;;
27209;SDS011;14721;42.668;23.386;2022-10-17T07:59:05;20.65;;;9.18;;
27209;SDS011;14721;42.668;23.386;2022-10-17T08:01:30;20.50;;;9.27;;
27209;SDS011;14721;42.668;23.386;2022-10-17T08:03:55;16.88;;;9.05;;
27209;SDS011;14721;42.668;23.386;2022-10-17T08:06:21;16.60;;;9.23;;
27209;SDS011;14721;42.668;23.386;2022-10-17T08:08:46;14.05;;;9.05;;
27209;SDS011;14721;42.668;23.386;2022-10-17T08:11:12;21.73;;;9.70;;
27209;SDS011;14721;42.668;23.386;2022-10-17T08:13:39;17.15;;;8.98;;
27209;SDS011;14721;42.668;23.386;2022-10-17T08:16:06;16.20;;;8.68;;
27209;SDS011;14721;42.668;23.386;2022-10-17T08:18:34;22.38;;;10.05;;
27209;SDS011;14721;42.668;23.386;2022-10-17T08:21:00;18.35;;;9.77;;
27209;SDS011;14721;42.668;23.386;2022-10-17T08:23:30;12.77;;;8.50;;
27209;SDS011;14721;42.668;23.386;2022-10-17T08:25:57;21.50;;;9.68;;
27209;SDS011;14721;42.668;23.386;2022-10-17T08:28:24;18.10;;;9.80;;
27209;SDS011;14721;42.668;23.386;2022-10-17T08:30:49;22.08;;;9.18;;
27209;SDS011;14721;42.668;23.386;2022-10-17T08:33:15;16.67;;;8.88;;
27209;SDS011;14721;42.668;23.386;2022-10-17T08:35:40;17.25;;;8.93;;
27209;SDS011;14721;42.668;23.386;2022-10-17T08:38:05;21.23;;;8.93;;
27209;SDS011;14721;42.668;23.386;2022-10-17T08:40:32;13.48;;;8.80;;
27209;SDS011;14721;42.668;23.386;2022-10-17T08:48:00;19.35;;;10.00;;
27209;SDS011;14721;42.668;23.386;2022-10-17T08:50:34;18.10;;;8.82;;
27209;SDS011;14721;42.668;23.386;2022-10-17T08:55:47;16.57;;;8.70;;
27209;SDS011;14721;42.668;23.386;2022-10-17T09:00:49;19.35;;;7.20;;
27209;SDS011;14721;42.668;23.386;2022-10-17T09:03:41;17.00;;;6.63;;
27209;SDS011;14721;42.668;23.386;2022-10-17T09:11:41;16.40;;;6.75;;
27209;SDS011;14721;42.668;23.386;2022-10-17T09:17:27;19.25;;;7.13;;
27209;SDS011;14721;42.668;23.386;2022-10-17T09:20:02;15.93;;;7.13;;
27209;SDS011;14721;42.668;23.386;2022-10-17T09:22:29;13.60;;;6.78;;
27209;SDS011;14721;42.668;23.386;2022-10-17T09:25:08;13.90;;;8.00;;
27209;SDS011;14721;42.668;23.386;2022-10-17T09:33:09;10.90;;;5.05;;
27209;SDS011;14721;42.668;23.386;2022-10-17T09:35:46;7.28;;;4.57;;
27209;SDS011;14721;42.668;23.386;2022-10-17T09:38:17;8.35;;;4.50;;
27209;SDS011;14721;42.668;23.386;2022-10-17T09:40:45;7.47;;;3.15;;
27209;SDS011;14721;42.668;23.386;2022-10-17T09:43:17;8.80;;;4.07;;
27209;SDS011;14721;42.668;23.386;2022-10-17T09:45:45;7.13;;;3.58;;
27209;SDS011;14721;42.668;23.386;2022-10-17T09:48:34;13.63;;;3.58;;
27209;SDS011;14721;42.668;23.386;2022-10-17T09:51:10;9.05;;;3.35;;
27209;SDS011;14721;42.668;23.386;2022-10-17T09:53:38;9.05;;;4.43;;
27209;SDS011;14721;42.668;23.386;2022-10-17T09:56:07;7.35;;;3.15;;
27209;SDS011;14721;42.668;23.386;2022-10-17T09:58:41;7.07;;;3.63;;
27209;SDS011;14721;42.668;23.386;2022-10-17T10:01:25;2.80;;;1.77;;
27209;SDS011;14721;42.668;23.386;2022-10-17T10:04:12;3.38;;;1.70;;
27209;SDS011;14721;42.668;23.386;2022-10-17T10:06:39;4.55;;;1.83;;
27209;SDS011;14721;42.668;23.386;2022-10-17T10:09:15;4.90;;;2.38;;
27209;SDS011;14721;42.668;23.386;2022-10-17T10:11:53;38.60;;;7.07;;
27209;SDS011;14721;42.668;23.386;2022-10-17T10:14:34;4.82;;;2.60;;
27209;SDS011;14721;42.668;23.386;2022-10-17T10:17:05;3.60;;;1.67;;
27209;SDS011;14721;42.668;23.386;2022-10-17T10:19:50;3.35;;;1.88;;
27209;SDS011;14721;42.668;23.386;2022-10-17T10:22:17;4.45;;;2.03;;
27209;SDS011;14721;42.668;23.386;2022-10-17T10:24:44;5.47;;;2.65;;
27209;SDS011;14721;42.668;23.386;2022-10-17T10:27:14;5.85;;;2.40;;
27209;SDS011;14721;42.668;23.386;2022-10-17T10:29:42;5.10;;;2.53;;
27209;SDS011;14721;42.668;23.386;2022-10-17T10:32:24;3.47;;;2.03;;
27209;SDS011;14721;42.668;23.386;2022-10-17T10:35:17;4.65;;;2.35;;
27209;SDS011;14721;42.668;23.386;2022-10-17T10:37:52;3.45;;;1.73;;
27209;SDS011;14721;42.668;23.386;2022-10-17T10:40:27;3.40;;;2.00;;
27209;SDS011;14721;42.668;23.386;2022-10-17T10:42:57;3.63;;;1.83;;
27209;SDS011;14721;42.668;23.386;2022-10-17T10:45:27;5.07;;;1.80;;
27209;SDS011;14721;42.668;23.386;2022-10-17T10:51:04;4.38;;;2.70;;
27209;SDS011;14721;42.668;23.386;2022-10-17T10:54:23;4.20;;;2.25;;
27209;SDS011;14721;42.668;23.386;2022-10-17T10:56:39;4.50;;;1.90;;
27209;SDS011;14721;42.668;23.386;2022-10-17T11:07:16;3.13;;;1.92;;
27209;SDS011;14721;42.668;23.386;2022-10-17T11:20:57;3.63;;;2.10;;
27209;SDS011;14721;42.668;23.386;2022-10-17T11:23:45;3.85;;;1.75;;
27209;SDS011;14721;42.668;23.386;2022-10-17T11:26:26;5.15;;;2.38;;
27209;SDS011;14721;42.668;23.386;2022-10-17T11:28:53;3.45;;;1.60;;
27209;SDS011;14721;42.668;23.386;2022-10-17T11:31:21;3.92;;;1.83;;
27209;SDS011;14721;42.668;23.386;2022-10-17T11:34:03;4.07;;;2.25;;
27209;SDS011;14721;42.668;23.386;2022-10-17T11:36:30;4.25;;;2.10;;
27209;SDS011;14721;42.668;23.386;2022-10-17T11:39:08;3.92;;;2.00;;
27209;SDS011;14721;42.668;23.386;2022-10-17T11:44:34;4.82;;;2.10;;
27209;SDS011;14721;42.668;23.386;2022-10-17T11:47:03;5.15;;;1.85;;
27209;SDS011;14721;42.668;23.386;2022-10-17T11:49:34;4.53;;;2.03;;
27209;SDS011;14721;42.668;23.386;2022-10-17T11:52:09;4.22;;;1.90;;
27209;SDS011;14721;42.668;23.386;2022-10-17T11:54:48;3.30;;;2.05;;
27209;SDS011;14721;42.668;23.386;2022-10-17T12:17:02;2.97;;;2.00;;
27209;SDS011;14721;42.668;23.386;2022-10-17T12:19:29;3.00;;;2.20;;
27209;SDS011;14721;42.668;23.386;2022-10-17T12:30:17;4.60;;;1.95;;
27209;SDS011;14721;42.668;23.386;2022-10-17T12:35:36;5.57;;;1.48;;
27209;SDS011;14721;42.668;23.386;2022-10-17T12:45:50;3.47;;;1.48;;
27209;SDS011;14721;42.668;23.386;2022-10-17T12:56:20;4.53;;;1.60;;
27209;SDS011;14721;42.668;23.386;2022-10-17T12:58:58;3.80;;;1.70;;
27209;SDS011;14721;42.668;23.386;2022-10-17T13:01:28;4.65;;;1.58;;
27209;SDS011;14721;42.668;23.386;2022-10-17T13:03:56;4.28;;;1.77;;
27209;SDS011;14721;42.668;23.386;2022-10-17T13:06:27;3.85;;;1.60;;
27209;SDS011;14721;42.668;23.386;2022-10-17T13:09:02;4.22;;;2.05;;
27209;SDS011;14721;42.668;23.386;2022-10-17T13:11:30;2.88;;;1.60;;
27209;SDS011;14721;42.668;23.386;2022-10-17T13:13:58;4.47;;;1.70;;
27209;SDS011;14721;42.668;23.386;2022-10-17T13:18:55;4.47;;;1.90;;
27209;SDS011;14721;42.668;23.386;2022-10-17T13:21:21;3.00;;;1.30;;
27209;SDS011;14721;42.668;23.386;2022-10-17T13:23:47;3.58;;;1.45;;
27209;SDS011;14721;42.668;23.386;2022-10-17T13:29:10;2.75;;;1.40;;
27209;SDS011;14721;42.668;23.386;2022-10-17T13:31:38;2.83;;;1.42;;
27209;SDS011;14721;42.668;23.386;2022-10-17T13:34:13;2.05;;;1.45;;
27209;SDS011;14721;42.668;23.386;2022-10-17T13:36:41;4.72;;;1.38;;
27209;SDS011;14721;42.668;23.386;2022-10-17T13:39:08;1.85;;;1.10;;
27209;SDS011;14721;42.668;23.386;2022-10-17T13:41:37;3.60;;;1.42;;
27209;SDS011;14721;42.668;23.386;2022-10-17T13:44:08;3.60;;;1.73;;
27209;SDS011;14721;42.668;23.386;2022-10-17T13:46:38;4.57;;;2.55;;
27209;SDS011;14721;42.668;23.386;2022-10-17T13:49:09;3.95;;;1.40;;
27209;SDS011;14721;42.668;23.386;2022-10-17T13:51:55;3.60;;;1.77;;
27209;SDS011;14721;42.668;23.386;2022-10-17T14:00:04;5.88;;;1.88;;
27209;SDS011;14721;42.668;23.386;2022-10-17T14:03:14;5.22;;;2.03;;
27209;SDS011;14721;42.668;23.386;2022-10-17T14:08:37;4.82;;;2.33;;
27209;SDS011;14721;42.668;23.386;2022-10-17T14:11:24;5.88;;;2.33;;
27209;SDS011;14721;42.668;23.386;2022-10-17T14:14:01;4.40;;;2.30;;
27209;SDS011;14721;42.668;23.386;2022-10-17T14:16:34;4.38;;;2.20;;
27209;SDS011;14721;42.668;23.386;2022-10-17T14:19:03;4.75;;;2.17;;
27209;SDS011;14721;42.668;23.386;2022-10-17T14:21:30;3.25;;;1.85;;
27209;SDS011;14721;42.668;23.386;2022-10-17T14:27:00;2.70;;;1.70;;
27209;SDS011;14721;42.668;23.386;2022-10-17T14:29:48;6.40;;;2.70;;
27209;SDS011;14721;42.668;23.386;2022-10-17T14:32:15;3.90;;;2.03;;
27209;SDS011;14721;42.668;23.386;2022-10-17T14:34:42;3.75;;;1.85;;
27209;SDS011;14721;42.668;23.386;2022-10-17T14:37:10;4.80;;;2.20;;
27209;SDS011;14721;42.668;23.386;2022-10-17T14:39:59;7.57;;;3.10;;
27209;SDS011;14721;42.668;23.386;2022-10-17T14:42:26;4.13;;;2.10;;
27209;SDS011;14721;42.668;23.386;2022-10-17T14:44:53;6.43;;;2.33;;
27209;SDS011;14721;42.668;23.386;2022-10-17T14:47:25;5.25;;;2.53;;
27209;SDS011;14721;42.668;23.386;2022-10-17T14:53:05;7.47;;;2.33;;
27209;SDS011;14721;42.668;23.386;2022-10-17T14:55:55;6.90;;;2.35;;
27209;SDS011;14721;42.668;23.386;2022-10-17T14:58:26;6.10;;;2.42;;
27209;SDS011;14721;42.668;23.386;2022-10-17T15:00:53;4.75;;;2.35;;
27209;SDS011;14721;42.668;23.386;2022-10-17T15:03:18;4.57;;;2.42;;
27209;SDS011;14721;42.668;23.386;2022-10-17T15:05:47;6.63;;;2.63;;
27209;SDS011;14721;42.668;23.386;2022-10-17T15:08:14;4.47;;;2.28;;
27209;SDS011;14721;42.668;23.386;2022-10-17T15:10:41;6.80;;;2.92;;
27209;SDS011;14721;42.668;23.386;2022-10-17T15:13:09;4.40;;;2.22;;
27209;SDS011;14721;42.668;23.386;2022-10-17T15:15:36;4.45;;;2.60;;
27209;SDS011;14721;42.668;23.386;2022-10-17T15:18:02;3.40;;;2.15;;
27209;SDS011;14721;42.668;23.386;2022-10-17T15:20:29;7.35;;;2.28;;
27209;SDS011;14721;42.668;23.386;2022-10-17T15:22:55;4.10;;;2.67;;
27209;SDS011;14721;42.668;23.386;2022-10-17T15:25:22;4.85;;;3.08;;
27209;SDS011;14721;42.668;23.386;2022-10-17T15:27:49;4.53;;;2.28;;
27209;SDS011;14721;42.668;23.386;2022-10-17T15:30:18;5.80;;;2.45;;
27209;SDS011;14721;42.668;23.386;2022-10-17T15:32:47;4.80;;;2.72;;
27209;SDS011;14721;42.668;23.386;2022-10-17T15:35:13;6.03;;;2.67;;
27209;SDS011;14721;42.668;23.386;2022-10-17T15:37:38;5.25;;;2.28;;
27209;SDS011;14721;42.668;23.386;2022-10-17T15:40:04;4.60;;;3.00;;
27209;SDS011;14721;42.668;23.386;2022-10-17T15:42:30;6.32;;;2.53;;
27209;SDS011;14721;42.668;23.386;2022-10-17T15:44:56;8.20;;;2.90;;
27209;SDS011;14721;42.668;23.386;2022-10-17T15:47:24;4.82;;;2.60;;
27209;SDS011;14721;42.668;23.386;2022-10-17T15:49:57;4.55;;;2.60;;
27209;SDS011;14721;42.668;23.386;2022-10-17T15:52:24;5.32;;;2.60;;
27209;SDS011;14721;42.668;23.386;2022-10-17T15:54:50;5.22;;;2.45;;
27209;SDS011;14721;42.668;23.386;2022-10-17T15:57:17;5.95;;;2.78;;
27209;SDS011;14721;42.668;23.386;2022-10-17T16:00:05;6.20;;;2.50;;
27209;SDS011;14721;42.668;23.386;2022-10-17T16:02:36;8.18;;;3.50;;
27209;SDS011;14721;42.668;23.386;2022-10-17T16:05:04;4.88;;;2.97;;
27209;SDS011;14721;42.668;23.386;2022-10-17T16:07:37;6.88;;;2.83;;
27209;SDS011;14721;42.668;23.386;2022-10-17T16:10:03;6.20;;;2.58;;
27209;SDS011;14721;42.668;23.386;2022-10-17T16:12:29;5.82;;;3.50;;
27209;SDS011;14721;42.668;23.386;2022-10-17T16:14:57;11.23;;;4.65;;
27209;SDS011;14721;42.668;23.386;2022-10-17T16:17:23;7.00;;;4.18;;
27209;SDS011;14721;42.668;23.386;2022-10-17T16:19:49;10.80;;;3.92;;
27209;SDS011;14721;42.668;23.386;2022-10-17T16:22:16;10.00;;;4.07;;
27209;SDS011;14721;42.668;23.386;2022-10-17T16:24:50;17.83;;;6.20;;
27209;SDS011;14721;42.668;23.386;2022-10-17T16:27:22;16.38;;;5.93;;
27209;SDS011;14721;42.668;23.386;2022-10-17T16:29:49;10.18;;;5.10;;
27209;SDS011;14721;42.668;23.386;2022-10-17T16:32:14;11.65;;;5.10;;
27209;SDS011;14721;42.668;23.386;2022-10-17T16:34:39;12.85;;;5.57;;
27209;SDS011;14721;42.668;23.386;2022-10-17T16:37:05;10.15;;;4.82;;
27209;SDS011;14721;42.668;23.386;2022-10-17T16:39:30;11.40;;;5.18;;
27209;SDS011;14721;42.668;23.386;2022-10-17T16:41:56;12.93;;;4.45;;
27209;SDS011;14721;42.668;23.386;2022-10-17T16:44:21;11.03;;;4.67;;
27209;SDS011;14721;42.668;23.386;2022-10-17T16:46:47;9.37;;;5.10;;
27209;SDS011;14721;42.668;23.386;2022-10-17T16:49:13;12.47;;;4.80;;
27209;SDS011;14721;42.668;23.386;2022-10-17T16:51:40;11.50;;;5.13;;
27209;SDS011;14721;42.668;23.386;2022-10-17T16:54:06;19.58;;;5.43;;
27209;SDS011;14721;42.668;23.386;2022-10-17T16:56:32;10.13;;;4.87;;